Time;durP1;ratioP1;P1;durP2;ratioP2;P2;SDS_P1;SDS_P2;PMS_P1;PMS_P2;Temp;Humidity;BMP_temperature;BMP_pressure;BME280_temperature;BME280_humidity;BME280_pressure;Samples;Min_cycle;Max_cycle;Signal;HPM_P1;HPM_P2
2022/02/06 00:02:18;;;;;;;14.60;9.60;;;;;;;4.28;56.83;100682.07;117353;1183;21861;-56
2022/02/06 00:04:48;;;;;;;12.70;8.90;;;;;;;4.27;56.87;100682.39;117338;1182;24133;-58
2022/02/06 00:07:16;;;;;;;14.20;9.70;;;;;;;4.25;56.78;100682.71;117225;1185;23633;-56
2022/02/06 00:09:46;;;;;;;16.20;10.30;;;;;;;4.23;56.60;100687.89;117399;1185;21924;-58
2022/02/06 00:12:33;;;;;;;16.70;10.00;;;;;;;4.23;56.86;100686.16;117374;1185;21892;-58
2022/02/06 00:15:02;;;;;;;16.10;10.40;;;;;;;4.22;56.78;100687.69;117355;1185;23506;-56
2022/02/06 00:17:31;;;;;;;20.30;10.80;;;;;;;4.22;56.87;100692.20;117327;1185;22655;-57
2022/02/06 00:19:59;;;;;;;15.80;10.20;;;;;;;4.22;56.75;100690.65;117438;1185;21976;-58
2022/02/06 00:22:36;;;;;;;15.90;10.20;;;;;;;4.21;56.91;100692.36;117391;1185;22973;-56
2022/02/06 00:27:50;;;;;;;15.80;10.10;;;;;;;4.20;56.86;100694.95;117181;1185;21858;-56
2022/02/06 00:32:52;;;;;;;15.00;10.30;;;;;;;4.16;56.78;100699.22;117383;1185;22909;-59
2022/02/06 00:38:26;;;;;;;16.60;10.70;;;;;;;4.03;56.72;100703.14;117226;1185;23538;-56
2022/02/06 00:43:24;;;;;;;15.10;10.90;;;;;;;3.87;56.74;100712.37;117323;1182;22403;-56
2022/02/06 00:45:53;;;;;;;17.80;10.90;;;;;;;3.78;56.75;100709.24;117407;1185;21905;-55
2022/02/06 00:48:25;;;;;;;16.30;11.00;;;;;;;3.69;56.62;100708.20;117408;1183;23454;-58
2022/02/06 00:52:00;;;;;;;13.70;10.10;;;;;;;3.61;56.66;100712.34;117365;1185;24150;-56
2022/02/06 00:53:51;;;;;;;17.10;10.40;;;;;;;3.50;56.66;100712.13;117255;1185;23631;-58
2022/02/06 00:56:20;;;;;;;17.50;10.90;;;;;;;3.42;56.62;100707.78;117338;1185;21858;-58
2022/02/06 00:58:48;;;;;;;18.30;11.20;;;;;;;3.35;56.65;100705.70;117340;1184;21857;-56
2022/02/06 01:01:16;;;;;;;17.60;10.90;;;;;;;3.30;56.76;100704.73;117398;1185;23637;-57
2022/02/06 01:03:44;;;;;;;17.00;10.70;;;;;;;3.27;56.77;100707.10;117309;1184;21861;-58
2022/02/06 01:06:20;;;;;;;17.60;10.30;;;;;;;3.24;56.63;100708.25;117342;1189;23502;-58
2022/02/06 01:08:48;;;;;;;19.60;11.00;;;;;;;3.21;56.72;100707.32;117320;1185;22982;-55
2022/02/06 01:11:17;;;;;;;16.20;10.20;;;;;;;3.18;56.76;100706.91;117381;1183;21902;-58
2022/02/06 01:14:17;;;;;;;13.10;9.30;;;;;;;3.14;56.67;100707.84;117303;1185;23458;-58
2022/02/06 01:17:00;;;;;;;18.90;10.30;;;;;;;3.10;56.71;100708.27;117320;1183;21860;-58
2022/02/06 01:19:39;;;;;;;16.90;10.20;;;;;;;3.07;56.79;100705.44;117321;1185;21866;-55
2022/02/06 01:22:11;;;;;;;14.50;9.90;;;;;;;3.05;56.57;100702.25;117326;1185;21851;-56
2022/02/06 01:27:14;;;;;;;17.90;11.40;;;;;;;2.99;56.82;100705.59;117503;1184;22333;-55
2022/02/06 01:32:18;;;;;;;16.60;10.10;;;;;;;2.91;56.82;100705.75;117386;1186;21855;-56
2022/02/06 01:34:59;;;;;;;16.20;10.40;;;;;;;2.87;56.83;100703.91;117407;1185;22999;-55
2022/02/06 01:37:30;;;;;;;14.90;8.80;;;;;;;2.79;56.89;100696.97;117427;1185;21882;-58
2022/02/06 01:40:07;;;;;;;16.00;10.40;;;;;;;2.72;56.76;100694.00;117473;1185;24142;-56
2022/02/06 01:42:49;;;;;;;14.00;9.60;;;;;;;2.65;56.87;100693.85;117377;1186;22194;-57
2022/02/06 02:04:45;;;;;;;14.40;9.70;;;;;;;2.51;56.76;100721.73;117427;1185;21842;-57
2022/02/06 02:28:39;;;;;;;15.80;11.10;;;;;;;2.40;56.61;100734.95;117319;1185;21855;-55
2022/02/06 02:31:17;;;;;;;19.90;11.80;;;;;;;2.39;56.68;100728.36;117391;1185;21854;-57
2022/02/06 02:47:18;;;;;;;16.60;10.70;;;;;;;2.31;56.70;100746.66;117209;1186;21857;-55
2022/02/06 02:50:00;;;;;;;19.40;10.50;;;;;;;2.28;56.63;100759.92;117378;1185;22196;-55
2022/02/06 02:52:49;;;;;;;16.30;10.40;;;;;;;2.19;56.63;100765.73;117407;1186;22908;-57
2022/02/06 03:03:31;;;;;;;15.90;10.80;;;;;;;1.93;57.01;100764.32;117386;1185;24147;-55
2022/02/06 03:06:01;;;;;;;18.10;10.90;;;;;;;1.90;57.04;100757.98;117358;1185;22034;-59
2022/02/06 03:08:31;;;;;;;17.10;11.90;;;;;;;1.89;56.98;100757.80;117216;1186;24123;-58
2022/02/06 03:11:01;;;;;;;14.80;10.70;;;;;;;1.90;56.74;100761.63;117383;1185;21891;-54
2022/02/06 03:13:39;;;;;;;18.00;11.40;;;;;;;1.89;56.72;100760.05;117346;1182;21855;-58
2022/02/06 03:18:55;;;;;;;19.30;11.70;;;;;;;1.85;56.93;100753.00;117324;1185;21858;-57
2022/02/06 03:21:27;;;;;;;19.30;11.60;;;;;;;1.85;56.80;100756.45;117296;1185;21861;-58
2022/02/06 03:24:07;;;;;;;18.70;11.80;;;;;;;1.89;56.54;100765.40;117354;1186;22057;-58
2022/02/06 03:26:36;;;;;;;16.90;11.30;;;;;;;1.90;56.69;100771.30;117339;1185;22967;-58
2022/02/06 03:29:04;;;;;;;20.10;12.50;;;;;;;1.91;56.91;100774.10;117333;1185;23429;-58
2022/02/06 03:31:32;;;;;;;17.60;10.90;;;;;;;1.90;56.84;100772.71;117175;1184;24158;-55
2022/02/06 03:34:00;;;;;;;21.40;12.00;;;;;;;1.90;56.84;100767.16;117372;1185;23361;-58
2022/02/06 03:36:29;;;;;;;21.50;11.10;;;;;;;1.89;56.78;100770.08;117418;1185;21858;-57
2022/02/06 03:38:57;;;;;;;19.10;11.70;;;;;;;1.80;56.91;100771.52;117445;1182;21851;-57
2022/02/06 03:41:27;;;;;;;19.10;11.40;;;;;;;1.75;56.89;100770.88;117437;1182;21862;-55
2022/02/06 03:44:06;;;;;;;20.40;11.20;;;;;;;1.73;57.18;100774.96;117356;1184;23557;-55
2022/02/06 03:46:44;;;;;;;23.70;12.00;;;;;;;1.70;57.02;100771.77;117372;1185;21855;-55
2022/02/06 03:49:16;;;;;;;15.70;10.40;;;;;;;1.68;57.06;100779.30;117294;1185;21914;-55
2022/02/06 03:51:44;;;;;;;18.30;10.80;;;;;;;1.65;56.87;100786.48;117348;1185;21845;-56
2022/02/06 03:54:12;;;;;;;16.00;10.30;;;;;;;1.62;57.00;100797.64;117385;1185;21904;-55
2022/02/06 03:56:41;;;;;;;18.30;10.40;;;;;;;1.58;56.87;100799.41;117386;1185;24129;-57
2022/02/06 03:59:10;;;;;;;16.80;10.70;;;;;;;1.55;56.99;100809.36;117337;1185;23601;-56
2022/02/06 04:01:38;;;;;;;18.50;11.30;;;;;;;1.53;57.02;100813.61;117460;1184;23426;-58
2022/02/06 04:04:06;;;;;;;19.10;11.30;;;;;;;1.50;57.12;100810.92;117380;1182;21844;-55
2022/02/06 04:06:35;;;;;;;17.80;11.30;;;;;;;1.48;56.95;100810.90;117389;1185;21851;-57
2022/02/06 04:09:08;;;;;;;17.90;10.40;;;;;;;1.47;57.12;100813.45;117413;1185;24136;-58
2022/02/06 04:11:49;;;;;;;17.20;11.00;;;;;;;1.47;57.07;100817.25;117394;1185;21869;-58
2022/02/06 04:14:27;;;;;;;17.10;10.20;;;;;;;1.47;57.11;100824.01;117316;1182;22785;-55
2022/02/06 04:17:01;;;;;;;20.20;10.70;;;;;;;1.50;56.99;100830.80;117323;1185;22642;-58
2022/02/06 04:19:29;;;;;;;19.00;10.70;;;;;;;1.49;56.91;100835.81;117396;1185;21854;-56
2022/02/06 04:21:58;;;;;;;22.80;11.90;;;;;;;1.51;57.03;100832.60;117299;1185;23433;-58
2022/02/06 04:24:26;;;;;;;20.20;10.90;;;;;;;1.46;57.11;100829.34;117377;1185;21854;-55
2022/02/06 04:26:54;;;;;;;17.90;10.60;;;;;;;1.46;57.05;100829.48;117333;1185;21855;-55
2022/02/06 04:29:24;;;;;;;17.00;10.80;;;;;;;1.46;57.15;100834.17;117323;1182;21852;-57
2022/02/06 04:31:52;;;;;;;18.60;10.40;;;;;;;1.47;57.27;100830.73;117395;1185;21861;-57
2022/02/06 04:34:21;;;;;;;15.30;10.10;;;;;;;1.47;57.37;100833.33;117426;1183;21855;-55
2022/02/06 04:37:43;;;;;;;19.50;10.40;;;;;;;1.48;57.21;100830.59;117375;1185;21858;-55
2022/02/06 05:12:30;;;;;;;17.70;10.40;;;;;;;1.20;56.95;100835.03;117356;1182;23459;-58
2022/02/06 05:14:58;;;;;;;19.10;10.40;;;;;;;1.17;57.03;100841.52;117297;1185;21860;-58
2022/02/06 05:30:54;;;;;;;25.30;11.30;;;;;;;1.09;57.11;100854.92;117170;1184;23619;-58
2022/02/06 05:33:22;;;;;;;16.90;10.60;;;;;;;1.12;57.28;100859.13;117191;1186;21857;-58
2022/02/06 05:35:51;;;;;;;19.50;10.60;;;;;;;1.14;57.32;100857.48;117323;1186;22315;-54
2022/02/06 05:38:19;;;;;;;20.70;10.80;;;;;;;1.17;57.34;100862.09;117322;1185;22642;-59
2022/02/06 05:40:48;;;;;;;20.80;11.30;;;;;;;1.21;57.43;100868.11;117327;1185;23455;-58
2022/02/06 05:43:16;;;;;;;17.70;10.40;;;;;;;1.25;57.52;100868.92;117372;1185;23582;-55
2022/02/06 05:45:44;;;;;;;17.70;9.60;;;;;;;1.30;57.51;100866.34;117441;1185;23451;-58
2022/02/06 05:48:12;;;;;;;18.80;9.90;;;;;;;1.35;57.50;100872.38;117419;1188;21854;-55
2022/02/06 05:50:42;;;;;;;18.50;10.30;;;;;;;1.40;57.39;100876.66;117365;1185;21855;-56
2022/02/06 05:53:11;;;;;;;17.60;10.20;;;;;;;1.44;57.56;100878.36;117309;1185;21845;-57
2022/02/06 05:55:39;;;;;;;19.40;10.10;;;;;;;1.49;57.71;100883.21;117370;1185;21998;-55
2022/02/06 05:58:07;;;;;;;13.00;9.40;;;;;;;1.56;57.69;100885.32;117349;1185;23073;-55
2022/02/06 06:00:35;;;;;;;19.30;10.30;;;;;;;1.61;57.74;100886.20;117385;1185;21851;-55
2022/02/06 06:03:06;;;;;;;16.50;9.70;;;;;;;1.68;57.64;100879.81;117389;1185;21858;-54
2022/02/06 06:05:35;;;;;;;;;;;;;;;1.72;57.67;100885.85;117426;1185;21832;-59
2022/02/06 06:08:04;;;;;;;13.50;8.70;;;;;;;1.77;57.78;100889.10;117410;1188;22446;-57
2022/02/06 06:10:33;;;;;;;14.40;9.30;;;;;;;1.82;57.74;100890.98;117365;1183;23533;-55
2022/02/06 06:13:02;;;;;;;18.90;10.30;;;;;;;1.87;57.72;100889.78;117377;1185;22795;-57
2022/02/06 06:15:30;;;;;;;15.40;10.00;;;;;;;1.93;57.73;100887.36;117376;1176;23538;-58
2022/02/06 06:18:03;;;;;;;36.50;12.60;;;;;;;2.00;57.70;100891.20;117393;1180;22909;-55
2022/02/06 06:20:34;;;;;;;28.40;13.20;;;;;;;2.07;57.64;100892.30;117360;1182;23557;-57
2022/02/06 06:23:02;;;;;;;20.50;10.70;;;;;;;2.15;57.72;100891.67;117399;1182;21854;-58
2022/02/06 06:25:37;;;;;;;20.90;10.40;;;;;;;2.22;57.65;100892.58;117472;1185;23461;-56
2022/02/06 06:28:06;;;;;;;20.70;11.00;;;;;;;2.30;57.78;100891.75;117337;1185;22943;-59
2022/02/06 06:30:35;;;;;;;16.40;10.10;;;;;;;2.39;57.75;100894.80;117537;1185;22974;-60
2022/02/06 06:33:18;;;;;;;28.80;11.90;;;;;;;2.48;57.97;100898.50;117227;1182;22088;-58
2022/02/06 06:35:55;;;;;;;29.10;11.60;;;;;;;2.57;58.03;100903.12;119392;1185;21784;-58
2022/02/06 06:38:23;;;;;;;33.80;22.30;;;;;;;2.66;57.98;100905.77;119386;1185;21779;-58
2022/02/06 06:40:52;;;;;;;36.70;16.20;;;;;;;2.75;58.09;100901.19;119229;1186;22183;-58
2022/02/06 06:43:20;;;;;;;16.00;10.90;;;;;;;2.86;57.94;100905.83;119389;1183;22171;-56
2022/02/06 06:45:48;;;;;;;14.40;9.40;;;;;;;2.96;58.00;100899.70;119459;1185;21790;-56
2022/02/06 06:48:16;;;;;;;16.00;9.50;;;;;;;3.07;58.03;100896.50;119380;1185;22358;-56
2022/02/06 06:50:44;;;;;;;17.30;8.50;;;;;;;3.19;58.09;100897.34;117389;1185;22606;-55
2022/02/06 06:53:13;;;;;;;13.60;8.50;;;;;;;3.27;58.03;100902.09;117388;1185;21894;-58
2022/02/06 06:55:45;;;;;;;17.70;10.00;;;;;;;3.37;58.07;100903.00;117297;1185;21855;-58
2022/02/06 06:58:23;;;;;;;;;;;;;;;3.46;58.10;100906.19;117356;1183;24136;-58
2022/02/06 07:03:24;;;;;;;36.30;23.80;;;;;;;3.64;58.11;100904.36;117498;1185;21863;-58
2022/02/06 07:05:52;;;;;;;69.10;45.10;;;;;;;3.72;58.08;100900.91;117353;1185;21857;-56
2022/02/06 07:08:21;;;;;;;52.20;36.80;;;;;;;3.81;58.18;100900.60;117297;1185;24157;-58
2022/02/06 07:10:49;;;;;;;22.80;15.10;;;;;;;3.92;58.04;100897.73;117364;1185;21855;-56
2022/02/06 07:13:23;;;;;;;18.20;10.30;;;;;;;4.01;58.12;100904.02;117407;1180;21854;-57
2022/02/06 07:15:52;;;;;;;16.00;9.60;;;;;;;4.09;58.19;100905.08;117365;1185;21955;-58
2022/02/06 07:18:21;;;;;;;12.60;8.20;;;;;;;4.18;58.26;100903.55;117351;1185;21854;-58
2022/02/06 07:20:53;;;;;;;13.40;8.00;;;;;;;4.29;58.33;100901.00;117280;1185;21854;-56
2022/02/06 07:23:26;;;;;;;12.80;7.60;;;;;;;4.38;58.14;100903.46;117445;1184;23509;-57
2022/02/06 07:25:59;;;;;;;12.40;8.30;;;;;;;4.46;58.47;100901.02;117435;1184;24135;-56
2022/02/06 07:28:29;;;;;;;14.70;7.70;;;;;;;4.54;58.29;100903.79;117373;1185;22653;-57
2022/02/06 07:30:58;;;;;;;11.80;7.50;;;;;;;4.64;58.37;100907.98;117336;1186;23455;-56
2022/02/06 07:33:26;;;;;;;11.20;7.70;;;;;;;4.70;58.42;100909.48;117354;1185;22626;-58
2022/02/06 07:35:55;;;;;;;15.20;8.50;;;;;;;4.78;58.58;100908.79;117302;1182;23455;-56
2022/02/06 07:38:23;;;;;;;13.20;7.30;;;;;;;4.85;58.11;100909.63;117232;1180;21861;-58
2022/02/06 07:40:52;;;;;;;12.50;7.40;;;;;;;4.90;58.20;100910.58;117370;1185;23432;-56
2022/02/06 07:43:20;;;;;;;12.30;7.70;;;;;;;4.93;58.41;100909.45;117492;1182;21922;-59
2022/02/06 07:45:48;;;;;;;14.70;7.60;;;;;;;4.99;58.44;100911.46;117388;1186;23570;-58
2022/02/06 07:48:19;;;;;;;12.10;7.40;;;;;;;5.05;58.35;100914.71;117361;1186;21848;-59
2022/02/06 07:50:47;;;;;;;14.00;7.60;;;;;;;5.13;58.44;100915.72;117405;1185;23766;-59
2022/02/06 07:53:17;;;;;;;16.60;7.70;;;;;;;5.19;58.27;100913.93;117430;1185;22103;-60
2022/02/06 07:55:45;;;;;;;13.30;7.40;;;;;;;5.26;58.41;100925.02;117320;1185;22666;-59
2022/02/06 07:58:13;;;;;;;12.30;6.90;;;;;;;5.32;58.22;100927.02;117310;1182;23594;-57
2022/02/06 08:00:42;;;;;;;12.20;6.50;;;;;;;5.41;58.39;100922.64;117344;1185;24130;-57
2022/02/06 08:03:10;;;;;;;12.20;7.10;;;;;;;5.48;58.09;100925.74;117412;1186;24226;-57
2022/02/06 08:05:39;;;;;;;12.90;6.90;;;;;;;5.56;57.99;100926.91;117397;1185;21855;-59
2022/02/06 08:08:14;;;;;;;11.90;7.50;;;;;;;5.62;58.34;100929.80;117375;1183;23542;-57
2022/02/06 08:10:44;;;;;;;9.90;7.00;;;;;;;5.65;58.22;100928.81;117372;1185;21890;-59
2022/02/06 08:13:25;;;;;;;12.90;7.70;;;;;;;5.70;58.16;100932.56;117361;1189;21864;-59
2022/02/06 08:15:54;;;;;;;10.10;7.30;;;;;;;5.78;58.42;100932.50;117353;1183;23535;-58
2022/02/06 08:18:23;;;;;;;12.10;7.20;;;;;;;5.86;58.49;100933.15;117345;1185;21855;-57
2022/02/06 08:20:51;;;;;;;14.60;7.00;;;;;;;5.96;58.75;100934.01;117397;1185;22849;-58
2022/02/06 08:23:40;;;;;;;11.10;6.70;;;;;;;6.08;58.32;100931.08;117370;1185;21864;-59
2022/02/06 08:26:08;;;;;;;11.30;6.20;;;;;;;6.21;58.43;100938.59;117357;1185;22804;-59
2022/02/06 08:28:37;;;;;;;13.80;7.10;;;;;;;6.34;58.52;100934.77;117378;1185;21857;-55
2022/02/06 08:31:05;;;;;;;10.00;6.00;;;;;;;6.52;58.36;100937.27;117347;1185;23598;-58
2022/02/06 08:33:34;;;;;;;10.60;5.60;;;;;;;6.63;58.35;100936.55;117357;1185;21847;-56
2022/02/06 08:36:02;;;;;;;10.40;5.10;;;;;;;6.72;58.30;100932.12;117389;1185;21830;-58
2022/02/06 08:38:31;;;;;;;10.80;6.00;;;;;;;6.82;58.22;100931.55;117373;1182;23445;-57
2022/02/06 08:40:59;;;;;;;9.40;5.80;;;;;;;6.92;58.47;100922.59;117341;1186;23563;-57
2022/02/06 08:43:27;;;;;;;13.00;6.30;;;;;;;7.04;58.54;100920.98;117401;1185;23429;-57
2022/02/06 08:45:55;;;;;;;10.90;5.50;;;;;;;7.13;58.26;100925.79;117273;1185;21861;-58
2022/02/06 08:48:24;;;;;;;13.30;6.00;;;;;;;7.20;58.29;100924.30;117316;1185;21854;-57
2022/02/06 08:50:52;;;;;;;9.10;5.00;;;;;;;7.22;58.01;100924.84;117364;1185;22810;-57
2022/02/06 08:53:20;;;;;;;11.30;5.90;;;;;;;7.27;58.33;100927.16;117334;1182;23459;-57
2022/02/06 08:55:49;;;;;;;11.30;6.40;;;;;;;7.37;58.43;100918.17;117279;1185;21845;-58
2022/02/06 08:58:17;;;;;;;10.90;5.90;;;;;;;7.47;58.49;100920.20;117405;1186;22618;-58
2022/02/06 09:00:46;;;;;;;7.70;4.80;;;;;;;7.56;58.39;100922.02;117422;1185;21867;-57
2022/02/06 09:03:15;;;;;;;8.80;4.90;;;;;;;7.64;58.36;100921.56;117374;1183;21852;-59
2022/02/06 09:05:43;;;;;;;10.10;5.50;;;;;;;7.71;58.20;100921.09;117422;1185;21851;-57
2022/02/06 09:08:12;;;;;;;8.40;4.80;;;;;;;7.79;58.14;100923.08;117365;1186;21871;-57
2022/02/06 09:10:40;;;;;;;8.90;4.70;;;;;;;7.86;58.29;100916.15;117343;1185;22651;-58
2022/02/06 09:13:08;;;;;;;8.90;4.20;;;;;;;7.95;58.46;100914.63;117354;1186;21852;-57
2022/02/06 09:15:37;;;;;;;10.10;3.60;;;;;;;8.07;58.37;100911.40;117410;1183;23432;-59
2022/02/06 09:18:10;;;;;;;13.50;4.50;;;;;;;8.18;58.46;100909.36;117342;1176;21841;-59
2022/02/06 09:20:38;;;;;;;7.80;3.70;;;;;;;8.26;58.38;100909.41;117368;1189;21857;-57
2022/02/06 09:23:07;;;;;;;6.70;3.60;;;;;;;8.35;58.44;100904.23;117329;1185;23433;-57
2022/02/06 09:25:36;;;;;;;8.00;3.50;;;;;;;8.49;58.39;100899.94;117416;1185;23224;-59
2022/02/06 09:28:04;;;;;;;7.10;3.70;;;;;;;8.61;58.47;100895.10;117364;1185;21854;-57
2022/02/06 09:30:33;;;;;;;6.30;3.10;;;;;;;8.70;58.28;100896.18;117379;1185;21863;-58
2022/02/06 09:35:29;;;;;;;6.40;3.30;;;;;;;8.95;58.36;100890.14;117318;1185;23432;-59
2022/02/06 09:37:58;;;;;;;8.10;3.70;;;;;;;9.05;58.35;100884.91;117335;1185;22756;-58
2022/02/06 09:40:26;;;;;;;8.20;4.50;;;;;;;9.09;58.32;100876.16;117365;1185;22983;-58
2022/02/06 09:42:55;;;;;;;7.20;3.30;;;;;;;9.19;58.32;100873.91;117217;1187;21858;-59
2022/02/06 09:45:28;;;;;;;7.80;3.70;;;;;;;9.33;58.39;100868.84;117261;1188;22618;-59
2022/02/06 09:47:58;;;;;;;8.10;3.50;;;;;;;9.46;58.34;100868.67;117421;1186;21854;-58
2022/02/06 09:50:26;;;;;;;10.40;3.70;;;;;;;9.47;58.08;100862.20;117282;1186;23433;-58
2022/02/06 09:52:55;;;;;;;6.00;2.80;;;;;;;9.46;58.17;100857.46;117333;1185;24145;-59
2022/02/06 09:55:23;;;;;;;4.70;2.00;;;;;;;9.49;58.02;100856.23;117381;1186;23442;-59
2022/02/06 10:00:43;;;;;;;6.30;1.70;;;;;;;9.68;58.06;100848.00;117085;1189;24139;-60
2022/02/06 10:03:12;;;;;;;7.10;2.30;;;;;;;9.71;57.80;100844.48;117368;1182;23875;-58
2022/02/06 10:05:44;;;;;;;4.00;1.90;;;;;;;9.76;57.91;100841.66;117365;1185;21864;-58
2022/02/06 10:08:28;;;;;;;4.70;1.80;;;;;;;9.85;57.80;100841.48;117426;1185;22618;-59
2022/02/06 10:11:11;;;;;;;4.70;1.80;;;;;;;9.95;57.96;100837.77;117371;1185;23535;-58
2022/02/06 10:13:40;;;;;;;6.10;1.80;;;;;;;10.06;57.81;100840.91;117350;1185;22833;-60
2022/02/06 10:16:10;;;;;;;5.00;1.80;;;;;;;10.12;57.81;100836.51;117350;1189;21842;-60
2022/02/06 10:18:38;;;;;;;5.90;2.00;;;;;;;10.20;57.74;100837.88;117342;1185;21950;-58
2022/02/06 10:21:09;;;;;;;6.80;2.00;;;;;;;10.26;57.69;100841.02;117393;1182;22908;-60
2022/02/06 10:23:56;;;;;;;5.00;1.50;;;;;;;10.29;57.64;100835.39;117366;1185;21864;-58
2022/02/06 10:31:39;;;;;;;5.40;2.00;;;;;;;10.28;57.45;100837.67;117290;1185;23535;-59
2022/02/06 10:34:28;;;;;;;3.70;1.50;;;;;;;10.29;57.50;100830.83;117310;1183;23575;-58
2022/02/06 10:37:19;;;;;;;3.70;1.80;;;;;;;10.31;57.43;100831.18;117346;1185;22818;-59
2022/02/06 10:40:02;;;;;;;5.20;1.90;;;;;;;10.33;57.40;100823.09;117207;1188;23436;-57
2022/02/06 10:42:38;;;;;;;5.30;1.30;;;;;;;10.37;57.23;100831.67;117334;1185;24601;-58
2022/02/06 10:45:19;;;;;;;3.30;1.20;;;;;;;10.32;57.00;100830.48;119304;1184;21894;-60
2022/02/06 10:47:50;;;;;;;4.30;1.60;;;;;;;10.18;56.75;100828.59;117378;1186;23547;-57
2022/02/06 10:50:20;;;;;;;4.50;1.40;;;;;;;10.00;56.61;100824.44;117392;1185;24333;-57
2022/02/06 10:52:49;;;;;;;1.90;0.80;;;;;;;9.91;56.81;100817.98;117311;1185;21866;-59
2022/02/06 10:55:19;;;;;;;4.90;1.10;;;;;;;9.94;56.90;100811.83;117372;1185;23506;-58
2022/02/06 10:58:02;;;;;;;5.30;1.40;;;;;;;10.03;57.10;100804.61;117372;1189;21880;-57
2022/02/06 11:00:33;;;;;;;3.30;1.50;;;;;;;10.15;57.06;100796.86;117274;1185;23432;-58
2022/02/06 11:03:22;;;;;;;3.30;1.10;;;;;;;10.27;57.11;100789.10;117125;1185;22938;-58
2022/02/06 11:05:53;;;;;;;4.00;1.30;;;;;;;10.41;57.06;100785.19;117366;1185;23580;-58
2022/02/06 11:08:29;;;;;;;5.30;1.50;;;;;;;10.45;57.10;100785.54;117293;1184;22910;-58
2022/02/06 11:10:59;;;;;;;2.20;1.00;;;;;;;10.54;57.12;100777.95;117348;1186;21963;-58
2022/02/06 11:13:28;;;;;;;3.10;1.10;;;;;;;10.65;56.96;100770.85;117251;1185;21915;-58
2022/02/06 11:15:58;;;;;;;3.40;0.90;;;;;;;10.76;56.88;100763.23;117328;1185;22965;-58
2022/02/06 11:18:39;;;;;;;7.70;1.50;;;;;;;10.88;57.01;100762.97;117368;1185;23537;-58
2022/02/06 11:21:08;;;;;;;3.80;1.40;;;;;;;10.98;57.06;100761.66;117461;1184;23539;-59
2022/02/06 11:23:36;;;;;;;4.40;2.40;;;;;;;11.01;56.85;100755.33;117490;1185;21860;-58
2022/02/06 11:26:12;;;;;;;2.50;1.20;;;;;;;11.03;56.70;100755.48;117419;1185;23605;-58
2022/02/06 11:28:40;;;;;;;4.10;1.40;;;;;;;11.16;57.01;100753.79;117387;1185;22913;-60
2022/02/06 11:31:09;;;;;;;5.00;1.80;;;;;;;11.21;56.59;100755.69;117344;1182;23532;-58
2022/02/06 11:33:37;;;;;;;6.00;1.50;;;;;;;11.23;56.46;100748.64;117297;1185;22616;-59
2022/02/06 11:36:13;;;;;;;5.00;1.50;;;;;;;11.28;56.65;100743.14;117319;1182;24731;-59
2022/02/06 11:45:07;;;;;;;5.50;1.70;;;;;;;11.44;56.56;100764.44;117363;1184;21844;-59
2022/02/06 11:47:46;;;;;;;3.60;1.40;;;;;;;11.40;56.35;100763.07;117285;1186;24280;-59
2022/02/06 11:50:14;;;;;;;2.30;1.10;;;;;;;11.33;56.08;100763.66;117340;1185;23458;-58
2022/02/06 11:52:56;;;;;;;5.30;1.70;;;;;;;11.29;56.09;100759.83;117225;1189;21857;-59
2022/02/06 11:55:34;;;;;;;3.10;1.10;;;;;;;11.25;56.25;100751.79;117362;1185;21861;-59
2022/02/06 11:58:26;;;;;;;4.90;1.80;;;;;;;11.29;56.35;100748.05;118696;1179;21827;-58
2022/02/06 12:01:21;;;;;;;4.90;2.90;;;;;;;11.31;56.12;100756.64;117423;1186;22912;-58
2022/02/06 12:03:53;;;;;;;10.70;6.20;;;;;;;11.31;56.08;100753.48;117335;1185;23446;-58
2022/02/06 12:06:24;;;;;;;5.10;2.20;;;;;;;11.30;56.00;100748.73;117444;1185;21855;-58
2022/02/06 12:08:58;;;;;;;5.20;1.60;;;;;;;11.30;56.00;100746.28;117337;1186;21858;-59
2022/02/06 12:11:32;;;;;;;5.20;1.20;;;;;;;11.29;55.74;100748.05;117397;1185;22908;-57
2022/02/06 12:14:12;;;;;;;3.60;2.00;;;;;;;11.28;55.94;100744.90;117379;1182;23436;-58
2022/02/06 12:16:51;;;;;;;10.50;6.50;;;;;;;11.28;55.84;100743.66;117147;1185;21943;-58
2022/02/06 12:19:32;;;;;;;6.10;2.60;;;;;;;11.25;55.91;100743.54;119212;1182;23582;-59
2022/02/06 12:22:29;;;;;;;8.10;4.40;;;;;;;11.21;55.78;100740.75;117910;1182;23699;-59
2022/02/06 12:25:33;;;;;;;9.80;6.20;;;;;;;11.19;55.72;100736.56;119415;1184;21787;-58
2022/02/06 12:28:10;;;;;;;11.60;6.30;;;;;;;11.19;55.74;100732.52;117433;1185;22998;-57
2022/02/06 12:30:40;;;;;;;11.50;6.80;;;;;;;11.29;55.95;100729.61;117454;1185;21848;-57
2022/02/06 12:33:19;;;;;;;4.50;2.20;;;;;;;11.35;55.95;100729.55;119309;1182;22301;-59
2022/02/06 12:38:36;;;;;;;4.10;1.60;;;;;;;11.49;55.81;100725.02;117188;1181;23560;-58
2022/02/06 12:41:27;;;;;;;4.80;1.50;;;;;;;11.50;55.55;100721.48;118002;1184;22931;-57
2022/02/06 12:44:04;;;;;;;4.80;1.70;;;;;;;11.46;55.68;100720.48;117327;1185;23469;-58
2022/02/06 12:46:32;;;;;;;5.30;1.80;;;;;;;11.45;55.53;100719.98;117362;1186;21853;-59
2022/02/06 12:49:02;;;;;;;4.30;1.70;;;;;;;11.50;55.71;100715.34;117194;1185;23001;-58
2022/02/06 12:51:35;;;;;;;4.60;1.70;;;;;;;11.53;55.53;100717.93;117392;1186;22181;-58
2022/02/06 12:54:06;;;;;;;5.30;2.00;;;;;;;11.53;55.51;100716.02;117407;1186;21851;-58
2022/02/06 12:56:34;;;;;;;4.70;2.30;;;;;;;11.50;55.49;100715.16;117394;1176;21854;-58
2022/02/06 12:59:03;;;;;;;4.80;2.30;;;;;;;11.41;55.38;100712.45;117366;1182;22881;-58
2022/02/06 13:01:38;;;;;;;3.70;1.70;;;;;;;11.25;55.07;100713.84;117388;1185;22934;-57
2022/02/06 13:04:09;;;;;;;4.00;1.90;;;;;;;11.06;54.81;100713.14;117331;1186;23827;-58
2022/02/06 13:06:38;;;;;;;3.40;1.60;;;;;;;10.88;54.84;100713.11;117300;1185;21861;-57
2022/02/06 13:09:35;;;;;;;4.00;2.00;;;;;;;10.70;54.83;100708.86;117370;1185;21874;-58
2022/02/06 13:12:18;;;;;;;4.10;2.20;;;;;;;10.52;54.82;100705.31;117436;1186;24150;-58
2022/02/06 13:28:32;;;;;;;3.80;2.30;;;;;;;9.95;55.04;100696.30;117321;1183;22654;-59
2022/02/06 13:31:18;;;;;;;4.60;2.20;;;;;;;10.08;55.15;100691.50;117347;1185;21900;-59
2022/02/06 13:39:04;;;;;;;4.80;2.80;;;;;;;10.56;55.33;100678.61;117389;1185;24143;-58
2022/02/06 13:41:33;;;;;;;8.40;4.20;;;;;;;10.68;55.43;100680.10;117398;1185;23615;-56
2022/02/06 13:44:02;;;;;;;8.40;2.40;;;;;;;10.78;55.18;100678.09;117388;1183;22641;-59
2022/02/06 13:46:34;;;;;;;3.10;2.00;;;;;;;10.86;55.32;100672.40;117328;1185;21908;-58
2022/02/06 13:49:02;;;;;;;5.10;2.00;;;;;;;10.91;55.17;100666.73;119427;1184;22120;-57
2022/02/06 13:51:41;;;;;;;4.20;2.10;;;;;;;10.93;54.78;100662.33;117986;1185;22915;-57
2022/02/06 13:54:09;;;;;;;5.30;1.90;;;;;;;10.87;54.75;100657.81;117338;1183;22849;-58
2022/02/06 13:56:45;;;;;;;4.80;1.80;;;;;;;10.80;54.73;100651.39;117401;1183;21854;-58
2022/02/06 13:59:18;;;;;;;4.10;2.40;;;;;;;10.76;54.74;100650.21;117328;1185;21855;-59
2022/02/06 14:01:51;;;;;;;3.40;1.90;;;;;;;10.76;54.69;100644.23;117362;1185;22913;-56
2022/02/06 14:04:32;;;;;;;3.40;1.70;;;;;;;10.73;54.59;100644.78;117338;1185;21859;-56
2022/02/06 14:07:14;;;;;;;4.00;1.70;;;;;;;10.65;54.55;100643.61;117335;1183;21850;-58
2022/02/06 14:09:55;;;;;;;3.40;1.60;;;;;;;10.58;54.58;100641.04;117400;1183;21851;-60
2022/02/06 14:12:25;;;;;;;3.50;1.90;;;;;;;10.48;54.44;100639.90;117374;1186;21867;-58
2022/02/06 14:14:57;;;;;;;9.20;3.00;;;;;;;10.40;54.42;100636.98;117352;1183;22806;-57
2022/02/06 14:17:42;;;;;;;14.10;2.40;;;;;;;10.34;54.34;100635.41;117361;1186;21898;-57
2022/02/06 14:20:12;;;;;;;4.50;2.10;;;;;;;10.28;54.33;100636.15;117290;1185;21857;-59
2022/02/06 14:22:44;;;;;;;;;;;;;;;10.20;54.38;100641.29;117177;1185;21829;-58
2022/02/06 14:25:15;;;;;;;10.80;3.20;;;;;;;10.08;54.07;100648.03;117252;1185;21870;-55
2022/02/06 14:27:44;;;;;;;8.90;2.40;;;;;;;9.92;53.87;100647.58;117343;1185;21859;-58
2022/02/06 14:30:12;;;;;;;3.80;2.00;;;;;;;9.78;53.82;100649.77;117439;1185;22996;-58